Time,TemperatureF,DewpointF,PressureIn,WindDirection,WindDirectionDegrees,WindSpeedMPH,WindSpeedGustMPH,Humidity,HourlyPrecipIn,Conditions,Clouds,dailyrainin,SolarRadiationWatts/m^2,SoftwareType,DateUTC
2014-01-22 00:01:00,37.0,5.0,-100.00,SE,126,9.0,11.0,26,0.00,,,0.00,0.000000,,2014-01-22 08:01:00,
2014-01-22 00:52:00,33.0,3.0,-100.00,ESE,122,8.0,10.0,28,-99.99,,,0.00,0.000000,,2014-01-22 08:52:00,
2014-01-22 01:02:00,33.0,3.0,-100.00,ESE,122,8.0,10.0,28,-99.99,,,0.00,0.000000,,2014-01-22 09:02:00,
2014-01-22 01:03:00,34.0,4.0,-100.00,ESE,120,8.0,11.0,27,0.00,,,0.00,0.000000,,2014-01-22 09:03:00,
2014-01-22 01:43:00,34.0,4.0,-100.00,ESE,120,8.0,11.0,27,0.00,,,0.00,0.000000,,2014-01-22 09:43:00,
2014-01-22 01:53:00,34.0,4.0,-100.00,ESE,120,8.0,11.0,27,0.00,,,0.00,0.000000,,2014-01-22 09:53:00,
2014-01-22 02:03:00,34.0,5.0,-100.00,SE,126,10.0,11.0,29,0.00,,,0.00,0.000000,,2014-01-22 10:03:00,
2014-01-22 02:42:00,34.0,5.0,-100.00,SE,126,10.0,11.0,29,0.00,,,0.00,0.000000,,2014-01-22 10:42:00,
2014-01-22 02:53:00,34.0,5.0,-100.00,SE,126,10.0,11.0,29,0.00,,,0.00,0.000000,,2014-01-22 10:53:00,
2014-01-22 03:42:00,35.0,7.0,-100.00,SE,124,10.0,12.0,31,0.00,,,0.00,0.000000,,2014-01-22 11:42:00,
2014-01-22 03:52:00,35.0,7.0,-100.00,SE,124,10.0,12.0,31,0.00,,,0.00,0.000000,,2014-01-22 11:52:00,
2014-01-22 04:02:00,35.0,7.0,-100.00,SE,124,10.0,12.0,31,0.00,,,0.00,0.000000,,2014-01-22 12:02:00,
2014-01-22 04:42:00,35.0,8.0,-100.00,ESE,122,9.0,12.0,32,0.00,,,0.00,0.000000,,2014-01-22 12:42:00,
2014-01-22 04:52:00,35.0,8.0,-100.00,ESE,122,9.0,12.0,32,0.00,,,0.00,0.000000,,2014-01-22 12:52:00,
2014-01-22 05:01:00,35.0,8.0,-100.00,ESE,122,9.0,12.0,32,0.00,,,0.00,0.000000,,2014-01-22 13:01:00,
2014-01-22 05:42:00,33.0,6.0,-100.00,ESE,121,8.0,11.0,31,0.00,,,0.00,0.000000,,2014-01-22 13:42:00,
2014-01-22 05:52:00,33.0,6.0,-100.00,ESE,121,8.0,11.0,31,0.00,,,0.00,0.000000,,2014-01-22 13:52:00,
2014-01-22 06:02:00,33.0,6.0,-100.00,ESE,121,8.0,11.0,31,0.00,,,0.00,0.000000,,2014-01-22 14:02:00,
2014-01-22 06:42:00,33.0,8.0,-100.00,SE,124,10.0,12.0,35,0.00,,,0.00,0.000000,,2014-01-22 14:42:00,
2014-01-22 06:52:00,33.0,8.0,-100.00,SE,124,10.0,12.0,35,0.00,,,0.00,0.000000,,2014-01-22 14:52:00,
2014-01-22 07:01:00,33.0,8.0,-100.00,SE,124,10.0,12.0,35,0.00,,,0.00,0.000000,,2014-01-22 15:01:00,
2014-01-22 07:03:00,35.0,9.0,-100.00,SE,125,10.0,12.0,33,0.00,,,-99.99,0.000000,,2014-01-22 15:03:00,
2014-01-22 07:43:00,35.0,9.0,-100.00,SE,125,10.0,12.0,33,0.00,,,-99.99,0.000000,,2014-01-22 15:43:00,
2014-01-22 07:53:00,35.0,9.0,-100.00,SE,125,10.0,12.0,33,0.00,,,-99.99,0.000000,,2014-01-22 15:53:00,
2014-01-22 08:42:00,35.0,10.0,-100.00,SE,137,6.0,12.0,35,0.00,,,0.00,6.000000,,2014-01-22 16:42:00,
2014-01-22 08:53:00,35.0,10.0,-100.00,SE,137,6.0,12.0,35,0.00,,,0.00,6.000000,,2014-01-22 16:53:00,
2014-01-22 09:02:00,35.0,10.0,-100.00,SE,137,6.0,12.0,35,0.00,,,0.00,6.000000,,2014-01-22 17:02:00,
2014-01-22 10:52:00,46.0,14.0,-100.00,WNW,289,2.0,5.0,27,-99.99,,,0.00,309.000000,,2014-01-22 18:52:00,
2014-01-22 11:01:00,46.0,14.0,-100.00,WNW,289,2.0,5.0,27,-99.99,,,0.00,309.000000,,2014-01-22 19:01:00,
2014-01-22 11:42:00,51.0,15.0,-100.00,West,268,5.0,7.0,23,0.00,,,0.00,429.000000,,2014-01-22 19:42:00,
2014-01-22 11:52:00,51.0,15.0,-100.00,West,268,5.0,7.0,23,0.00,,,0.00,429.000000,,2014-01-22 19:52:00,
2014-01-22 12:01:00,51.0,15.0,-100.00,West,268,5.0,7.0,23,0.00,,,0.00,429.000000,,2014-01-22 20:01:00,
2014-01-22 12:42:00,51.0,19.0,-100.00,WSW,258,5.0,8.0,28,0.00,,,0.00,500.000000,,2014-01-22 20:42:00,
2014-01-22 12:52:00,51.0,19.0,-100.00,WSW,258,5.0,8.0,28,0.00,,,0.00,500.000000,,2014-01-22 20:52:00,
2014-01-22 13:02:00,51.0,19.0,-100.00,WSW,258,5.0,8.0,28,0.00,,,0.00,500.000000,,2014-01-22 21:02:00,
2014-01-22 13:03:00,53.0,15.0,-100.00,West,281,5.0,8.0,22,0.00,,,0.00,520.000000,,2014-01-22 21:03:00,
2014-01-22 13:22:00,53.0,15.0,-100.00,West,281,5.0,8.0,22,0.00,,,0.00,520.000000,,2014-01-22 21:22:00,
2014-01-22 13:33:00,53.0,15.0,-100.00,West,281,5.0,8.0,22,0.00,,,0.00,520.000000,,2014-01-22 21:33:00,
2014-01-22 13:44:00,53.0,15.0,-100.00,West,281,5.0,8.0,22,0.00,,,0.00,520.000000,,2014-01-22 21:44:00,
2014-01-22 13:53:00,53.0,15.0,-100.00,West,281,5.0,8.0,22,0.00,,,0.00,520.000000,,2014-01-22 21:53:00,
2014-01-22 14:43:00,54.0,15.0,-100.00,West,278,5.0,8.0,21,0.00,,,0.00,468.000000,,2014-01-22 22:43:00,
2014-01-22 14:53:00,54.0,15.0,-100.00,West,278,5.0,8.0,21,0.00,,,0.00,468.000000,,2014-01-22 22:53:00,
2014-01-22 15:02:00,54.0,15.0,-100.00,West,278,5.0,8.0,21,0.00,,,0.00,468.000000,,2014-01-22 23:02:00,
2014-01-22 15:42:00,55.0,17.0,-100.00,WNW,297,4.0,8.0,22,0.00,,,0.00,361.000000,,2014-01-22 23:42:00,
2014-01-22 15:52:00,55.0,17.0,-100.00,WNW,297,4.0,8.0,22,0.00,,,0.00,361.000000,,2014-01-22 23:52:00,
2014-01-22 16:02:00,55.0,17.0,-100.00,WNW,297,4.0,8.0,22,0.00,,,0.00,361.000000,,2014-01-23 00:02:00,
2014-01-22 16:22:00,55.0,16.0,-100.00,WNW,291,3.0,8.0,21,0.00,,,0.00,228.000000,,2014-01-23 00:22:00,
2014-01-22 16:32:00,55.0,16.0,-100.00,WNW,291,3.0,8.0,21,0.00,,,0.00,228.000000,,2014-01-23 00:32:00,
2014-01-22 16:42:00,55.0,16.0,-100.00,WNW,291,3.0,8.0,21,0.00,,,0.00,228.000000,,2014-01-23 00:42:00,
2014-01-22 18:53:00,37.0,14.0,-100.00,SE,133,6.0,9.0,39,0.00,,,0.00,3.000000,,2014-01-23 02:53:00,
2014-01-22 19:02:00,37.0,14.0,-100.00,SE,133,6.0,9.0,39,0.00,,,0.00,3.000000,,2014-01-23 03:02:00,
2014-01-22 19:03:00,40.0,11.0,-100.00,SW,221,2.0,12.0,30,0.00,,,0.00,0.000000,,2014-01-23 03:03:00,
2014-01-22 19:43:00,40.0,11.0,-100.00,SW,221,2.0,12.0,30,0.00,,,0.00,0.000000,,2014-01-23 03:43:00,
2014-01-22 19:53:00,40.0,11.0,-100.00,SW,221,2.0,12.0,30,0.00,,,0.00,0.000000,,2014-01-23 03:53:00,
2014-01-22 20:53:00,36.0,5.0,-100.00,SE,125,8.0,11.0,27,0.00,,,0.00,0.000000,,2014-01-23 04:53:00,
2014-01-22 21:02:00,36.0,5.0,-100.00,SE,125,8.0,11.0,27,0.00,,,0.00,0.000000,,2014-01-23 05:02:00,
2014-01-22 21:42:00,38.0,9.0,-100.00,ESE,111,3.0,10.0,29,0.00,,,0.00,0.000000,,2014-01-23 05:42:00,
2014-01-22 21:52:00,38.0,9.0,-100.00,ESE,111,3.0,10.0,29,0.00,,,0.00,0.000000,,2014-01-23 05:52:00,
2014-01-22 22:02:00,38.0,9.0,-100.00,ESE,111,3.0,10.0,29,0.00,,,0.00,0.000000,,2014-01-23 06:02:00,
2014-01-22 22:42:00,35.0,9.0,-100.00,East,97,7.0,11.0,34,0.00,,,0.00,0.000000,,2014-01-23 06:42:00,
2014-01-22 22:52:00,35.0,9.0,-100.00,East,97,7.0,11.0,34,0.00,,,0.00,0.000000,,2014-01-23 06:52:00,
2014-01-22 23:01:00,35.0,9.0,-100.00,East,97,7.0,11.0,34,0.00,,,0.00,0.000000,,2014-01-23 07:01:00,
2014-01-22 23:52:00,40.0,13.0,-100.00,NNE,30,18.0,28.0,32,0.00,,,0.00,0.000000,,2014-01-23 07:52:00,